sensor_id;sensor_type;location;lat;lon;timestamp;pressure;altitude;pressure_sealevel;temperature;humidity
6530;BME280;3298;42.688;23.366;2022-07-12T00:01:23;59327.06;;;-145.06;65.52
6530;BME280;3298;42.688;23.366;2022-07-12T00:03:51;59357.84;;;-145.06;65.83
6530;BME280;3298;42.688;23.366;2022-07-12T00:06:18;59335.28;;;-145.06;65.95
6530;BME280;3298;42.688;23.366;2022-07-12T00:08:45;59355.78;;;-145.06;65.15
6530;BME280;3298;42.688;23.366;2022-07-12T00:11:12;59357.84;;;-145.06;64.54
6530;BME280;3298;42.688;23.366;2022-07-12T00:13:39;59351.69;;;-145.06;65.14
6530;BME280;3298;42.688;23.366;2022-07-12T00:16:06;59349.63;;;-145.06;65.05
6530;BME280;3298;42.688;23.366;2022-07-12T00:18:33;59361.94;;;-145.06;65.18
6530;BME280;3298;42.688;23.366;2022-07-12T00:21:01;59355.78;;;-145.06;65.09
6530;BME280;3298;42.688;23.366;2022-07-12T00:23:28;59347.59;;;-145.06;65.44
6530;BME280;3298;42.688;23.366;2022-07-12T00:25:54;59347.59;;;-145.06;65.06
6530;BME280;3298;42.688;23.366;2022-07-12T00:28:21;59370.16;;;-145.06;65.14
6530;BME280;3298;42.688;23.366;2022-07-12T00:30:48;59359.88;;;-145.06;64.96
6530;BME280;3298;42.688;23.366;2022-07-12T00:33:15;59347.59;;;-145.06;64.97
6530;BME280;3298;42.688;23.366;2022-07-12T00:35:41;59359.88;;;-145.06;65.94
6530;BME280;3298;42.688;23.366;2022-07-12T00:38:09;59370.16;;;-145.06;66.93
6530;BME280;3298;42.688;23.366;2022-07-12T00:40:36;59388.59;;;-145.06;67.19
6530;BME280;3298;42.688;23.366;2022-07-12T00:43:03;60088.19;;;-145.06;66.30
6530;BME280;3298;42.688;23.366;2022-07-12T00:45:30;59341.44;;;-145.06;66.62
6530;BME280;3298;42.688;23.366;2022-07-12T00:47:57;59376.31;;;-145.06;67.43
6530;BME280;3298;42.688;23.366;2022-07-12T00:50:24;59361.94;;;-145.06;67.32
6530;BME280;3298;42.688;23.366;2022-07-12T00:52:53;59185.53;;;-145.06;67.53
6530;BME280;3298;42.688;23.366;2022-07-12T00:55:22;59372.19;;;-145.06;68.44
6530;BME280;3298;42.688;23.366;2022-07-12T00:57:50;59347.59;;;-145.06;69.31
6530;BME280;3298;42.688;23.366;2022-07-12T01:00:21;59343.47;;;-145.06;69.59
6530;BME280;3298;42.688;23.366;2022-07-12T01:02:48;59355.78;;;-145.06;70.71
6530;BME280;3298;42.688;23.366;2022-07-12T01:05:15;59286.03;;;-145.06;71.63
6530;BME280;3298;42.688;23.366;2022-07-12T01:07:43;59343.47;;;-145.06;72.43
6530;BME280;3298;42.688;23.366;2022-07-12T01:10:11;59187.59;;;-145.06;73.32
6530;BME280;3298;42.688;23.366;2022-07-12T01:12:39;59191.69;;;-145.06;73.94
6530;BME280;3298;42.688;23.366;2022-07-12T01:15:08;59318.88;;;-145.06;73.88
6530;BME280;3298;42.688;23.366;2022-07-12T01:17:35;59347.59;;;-145.06;73.47
6530;BME280;3298;42.688;23.366;2022-07-12T01:20:05;59300.41;;;-145.06;72.75
6530;BME280;3298;42.688;23.366;2022-07-12T01:22:34;59310.66;;;-145.06;73.05
6530;BME280;3298;42.688;23.366;2022-07-12T01:25:04;59290.16;;;-145.06;73.00
6530;BME280;3298;42.688;23.366;2022-07-12T01:27:32;59318.88;;;-145.06;72.94
6530;BME280;3298;42.688;23.366;2022-07-12T01:30:01;59132.19;;;-145.06;73.33
6530;BME280;3298;42.688;23.366;2022-07-12T01:32:28;59335.28;;;-145.06;74.46
6530;BME280;3298;42.688;23.366;2022-07-12T01:34:57;59335.28;;;-145.06;74.38
6530;BME280;3298;42.688;23.366;2022-07-12T01:37:25;59308.59;;;-145.06;75.42
6530;BME280;3298;42.688;23.366;2022-07-12T01:39:53;59314.75;;;-145.06;74.99
6530;BME280;3298;42.688;23.366;2022-07-12T01:42:23;59306.56;;;-145.06;75.73
6530;BME280;3298;42.688;23.366;2022-07-12T01:44:52;59314.75;;;-145.06;75.76
6530;BME280;3298;42.688;23.366;2022-07-12T01:47:20;59294.25;;;-145.06;76.05
6530;BME280;3298;42.688;23.366;2022-07-12T01:49:48;59286.03;;;-145.06;75.36
6530;BME280;3298;42.688;23.366;2022-07-12T01:52:15;59023.50;;;-145.06;75.37
6530;BME280;3298;42.688;23.366;2022-07-12T01:54:42;59296.31;;;-145.06;75.45
6530;BME280;3298;42.688;23.366;2022-07-12T01:57:09;59259.38;;;-145.06;76.42
6530;BME280;3298;42.688;23.366;2022-07-12T01:59:38;59257.31;;;-145.06;76.62
6530;BME280;3298;42.688;23.366;2022-07-12T02:02:06;59271.69;;;-145.06;77.34
6530;BME280;3298;42.688;23.366;2022-07-12T02:04:33;59253.22;;;-145.06;78.25
6530;BME280;3298;42.688;23.366;2022-07-12T02:07:01;59281.94;;;-145.06;78.10
6530;BME280;3298;42.688;23.366;2022-07-12T02:09:28;59271.69;;;-145.06;78.90
6530;BME280;3298;42.688;23.366;2022-07-12T02:11:54;59417.31;;;-145.06;80.25
6530;BME280;3298;42.688;23.366;2022-07-12T02:14:21;59240.91;;;-145.06;81.81
6530;BME280;3298;42.688;23.366;2022-07-12T02:16:49;59720.94;;;-145.06;82.53
6530;BME280;3298;42.688;23.366;2022-07-12T02:19:16;59249.13;;;-145.06;83.78
6530;BME280;3298;42.688;23.366;2022-07-12T02:21:43;59249.13;;;-145.06;83.39
6530;BME280;3298;42.688;23.366;2022-07-12T02:24:10;59339.38;;;-145.06;82.96
6530;BME280;3298;42.688;23.366;2022-07-12T02:26:37;59253.22;;;-145.06;83.35
6530;BME280;3298;42.688;23.366;2022-07-12T02:29:04;59261.44;;;-145.06;82.66
6530;BME280;3298;42.688;23.366;2022-07-12T02:31:32;59273.72;;;-145.06;82.89
6530;BME280;3298;42.688;23.366;2022-07-12T02:34:00;59310.66;;;-145.06;83.81
6530;BME280;3298;42.688;23.366;2022-07-12T02:36:27;59288.09;;;-145.06;83.46
6530;BME280;3298;42.688;23.366;2022-07-12T02:38:53;59298.34;;;-145.06;82.90
6530;BME280;3298;42.688;23.366;2022-07-12T02:41:20;59269.63;;;-145.06;82.94
6530;BME280;3298;42.688;23.366;2022-07-12T02:43:47;59224.50;;;-145.06;82.48
6530;BME280;3298;42.688;23.366;2022-07-12T02:46:14;59265.53;;;-145.06;82.03
6530;BME280;3298;42.688;23.366;2022-07-12T02:48:42;59204.00;;;-145.06;82.55
6530;BME280;3298;42.688;23.366;2022-07-12T02:51:10;59208.09;;;-145.06;82.60
6530;BME280;3298;42.688;23.366;2022-07-12T02:53:37;59142.47;;;-145.06;82.84
6530;BME280;3298;42.688;23.366;2022-07-12T02:56:04;59072.72;;;-145.06;82.20
6530;BME280;3298;42.688;23.366;2022-07-12T02:58:31;59044.00;;;-145.06;81.63
6530;BME280;3298;42.688;23.366;2022-07-12T03:00:58;58968.09;;;-145.06;81.92
6530;BME280;3298;42.688;23.366;2022-07-12T03:03:25;58929.13;;;-145.06;81.63
6530;BME280;3298;42.688;23.366;2022-07-12T03:05:52;58875.81;;;-145.06;82.13
6530;BME280;3298;42.688;23.366;2022-07-12T03:08:20;58832.75;;;-145.06;83.01
6530;BME280;3298;42.688;23.366;2022-07-12T03:10:46;58383.59;;;-145.06;82.15
6530;BME280;3298;42.688;23.366;2022-07-12T03:13:13;58715.84;;;-145.06;81.91
6530;BME280;3298;42.688;23.366;2022-07-12T03:15:40;58680.97;;;-145.06;81.67
6530;BME280;3298;42.688;23.366;2022-07-12T03:18:07;58644.06;;;-145.06;81.51
6530;BME280;3298;42.688;23.366;2022-07-12T03:20:34;58607.13;;;-145.06;81.00
6530;BME280;3298;42.688;23.366;2022-07-12T03:23:01;58441.03;;;-145.06;81.01
6530;BME280;3298;42.688;23.366;2022-07-12T03:25:29;58590.72;;;-145.06;80.90
6530;BME280;3298;42.688;23.366;2022-07-12T03:27:56;58541.50;;;-145.06;81.29
6530;BME280;3298;42.688;23.366;2022-07-12T03:30:23;61032.13;;;-145.06;82.30
6530;BME280;3298;42.688;23.366;2022-07-12T03:32:49;58584.59;;;-145.06;81.85
6530;BME280;3298;42.688;23.366;2022-07-12T03:35:16;58551.75;;;-145.06;81.08
6530;BME280;3298;42.688;23.366;2022-07-12T03:37:45;58518.94;;;-145.06;80.59
6530;BME280;3298;42.688;23.366;2022-07-12T03:40:13;58502.53;;;-145.06;80.15
6530;BME280;3298;42.688;23.366;2022-07-12T03:42:42;58484.09;;;-145.06;79.94
6530;BME280;3298;42.688;23.366;2022-07-12T03:45:09;58490.25;;;-145.06;80.75
6530;BME280;3298;42.688;23.366;2022-07-12T03:47:36;58523.06;;;-145.06;80.79
6530;BME280;3298;42.688;23.366;2022-07-12T03:50:04;58447.19;;;-145.06;81.42
6530;BME280;3298;42.688;23.366;2022-07-12T03:52:32;58574.31;;;-145.06;80.63
6530;BME280;3298;42.688;23.366;2022-07-12T03:54:58;58545.63;;;-145.06;79.74
6530;BME280;3298;42.688;23.366;2022-07-12T03:57:27;58559.97;;;-145.06;77.76
6530;BME280;3298;42.688;23.366;2022-07-12T03:59:56;58518.94;;;-145.06;77.44
6530;BME280;3298;42.688;23.366;2022-07-12T04:02:23;58438.97;;;-145.06;77.25
6530;BME280;3298;42.688;23.366;2022-07-12T04:04:50;58527.16;;;-145.06;77.06
6530;BME280;3298;42.688;23.366;2022-07-12T04:07:17;58482.03;;;-145.06;76.05
6530;BME280;3298;42.688;23.366;2022-07-12T04:09:45;58371.31;;;-145.06;76.13
6530;BME280;3298;42.688;23.366;2022-07-12T04:12:12;58492.28;;;-145.06;76.08
6530;BME280;3298;42.688;23.366;2022-07-12T04:14:39;58441.03;;;-145.06;75.61
6530;BME280;3298;42.688;23.366;2022-07-12T04:17:07;58463.59;;;-145.06;75.53
6530;BME280;3298;42.688;23.366;2022-07-12T04:19:34;58469.72;;;-145.06;75.40
6530;BME280;3298;42.688;23.366;2022-07-12T04:22:01;58473.84;;;-145.06;74.95
6530;BME280;3298;42.688;23.366;2022-07-12T04:24:28;58428.72;;;-145.06;74.48
6530;BME280;3298;42.688;23.366;2022-07-12T04:26:54;58402.06;;;-145.06;73.78
6530;BME280;3298;42.688;23.366;2022-07-12T04:29:21;58436.91;;;-145.06;74.45
6530;BME280;3298;42.688;23.366;2022-07-12T04:31:48;58412.31;;;-145.06;74.51
6530;BME280;3298;42.688;23.366;2022-07-12T04:34:16;58424.63;;;-145.06;74.19
6530;BME280;3298;42.688;23.366;2022-07-12T04:36:44;58395.91;;;-145.06;74.20
6530;BME280;3298;42.688;23.366;2022-07-12T04:39:11;58391.81;;;-145.06;73.71
6530;BME280;3298;42.688;23.366;2022-07-12T04:41:38;58385.66;;;-145.06;73.64
6530;BME280;3298;42.688;23.366;2022-07-12T04:44:06;58420.50;;;-145.06;74.58
6530;BME280;3298;42.688;23.366;2022-07-12T04:46:33;58391.81;;;-145.06;74.69
6530;BME280;3298;42.688;23.366;2022-07-12T04:49:00;58385.66;;;-145.06;74.01
6530;BME280;3298;42.688;23.366;2022-07-12T04:51:28;58400.00;;;-145.06;73.95
6530;BME280;3298;42.688;23.366;2022-07-12T04:53:55;58346.69;;;-145.06;74.23
6530;BME280;3298;42.688;23.366;2022-07-12T04:56:22;58342.59;;;-145.06;74.51
6530;BME280;3298;42.688;23.366;2022-07-12T04:58:49;58701.47;;;-145.06;74.06
6530;BME280;3298;42.688;23.366;2022-07-12T05:01:16;58217.50;;;-145.06;70.54
6530;BME280;3298;42.688;23.366;2022-07-12T05:03:42;58367.19;;;-145.06;64.77
6530;BME280;3298;42.688;23.366;2022-07-12T05:06:09;58482.03;;;-145.06;57.82
6530;BME280;3298;42.688;23.366;2022-07-12T05:08:37;58724.03;;;-145.06;54.29
6530;BME280;3298;42.688;23.366;2022-07-12T05:11:05;58777.38;;;-145.06;52.31
6530;BME280;3298;42.688;23.366;2022-07-12T05:13:32;58886.06;;;-145.06;49.71
6530;BME280;3298;42.688;23.366;2022-07-12T05:15:59;59152.72;;;-145.06;45.58
6530;BME280;3298;42.688;23.366;2022-07-12T05:18:26;59185.53;;;-145.06;43.86
6530;BME280;3298;42.688;23.366;2022-07-12T05:20:52;59156.81;;;-145.06;44.04
6530;BME280;3298;42.688;23.366;2022-07-12T05:23:19;59195.78;;;-145.06;42.40
6530;BME280;3298;42.688;23.366;2022-07-12T05:25:47;59111.69;;;-145.06;44.25
6530;BME280;3298;42.688;23.366;2022-07-12T05:28:14;59124.00;;;-145.06;43.39
6530;BME280;3298;42.688;23.366;2022-07-12T05:30:42;59072.72;;;-145.06;43.54
6530;BME280;3298;42.688;23.366;2022-07-12T05:33:09;58945.56;;;-145.06;42.94
6530;BME280;3298;42.688;23.366;2022-07-12T05:35:37;59142.47;;;-145.06;43.07
6530;BME280;3298;42.688;23.366;2022-07-12T05:38:04;59167.06;;;-145.06;42.31
6530;BME280;3298;42.688;23.366;2022-07-12T05:40:31;59216.31;;;-145.06;41.90
6530;BME280;3298;42.688;23.366;2022-07-12T05:42:59;59134.25;;;-145.06;42.52
6530;BME280;3298;42.688;23.366;2022-07-12T05:45:26;59109.63;;;-145.06;42.94
6530;BME280;3298;42.688;23.366;2022-07-12T05:47:52;59292.19;;;-145.06;41.81
6530;BME280;3298;42.688;23.366;2022-07-12T05:50:19;59273.72;;;-145.06;40.89
6530;BME280;3298;42.688;23.366;2022-07-12T05:52:46;59347.59;;;-145.06;39.98
6530;BME280;3298;42.688;23.366;2022-07-12T05:55:30;59474.75;;;-145.06;39.44
6530;BME280;3298;42.688;23.366;2022-07-12T05:57:58;59286.03;;;-145.06;38.63
6530;BME280;3298;42.688;23.366;2022-07-12T06:00:25;59883.03;;;-145.06;36.85
6530;BME280;3298;42.688;23.366;2022-07-12T06:02:52;59464.50;;;-145.06;35.92
6530;BME280;3298;42.688;23.366;2022-07-12T06:05:19;59839.94;;;-145.06;35.56
6530;BME280;3298;42.688;23.366;2022-07-12T06:07:45;59926.09;;;-145.06;35.76
6530;BME280;3298;42.688;23.366;2022-07-12T06:10:12;59932.25;;;-145.06;34.80
6530;BME280;3298;42.688;23.366;2022-07-12T06:12:39;59893.28;;;-145.06;35.76
6530;BME280;3298;42.688;23.366;2022-07-12T06:15:08;59741.47;;;-145.06;35.84
6530;BME280;3298;42.688;23.366;2022-07-12T06:17:35;59649.13;;;-145.06;37.46
6530;BME280;3298;42.688;23.366;2022-07-12T06:20:02;59880.97;;;-145.06;35.70
6530;BME280;3298;42.688;23.366;2022-07-12T06:22:29;59917.91;;;-145.06;34.76
6530;BME280;3298;42.688;23.366;2022-07-12T06:24:56;59987.66;;;-145.06;35.64
6530;BME280;3298;42.688;23.366;2022-07-12T06:27:23;60190.78;;;-145.06;34.63
6530;BME280;3298;42.688;23.366;2022-07-12T06:29:51;60133.31;;;-145.06;35.52
6530;BME280;3298;42.688;23.366;2022-07-12T06:32:19;59688.13;;;-145.06;38.63
6530;BME280;3298;42.688;23.366;2022-07-12T06:34:46;58888.13;;;-145.06;42.00
6530;BME280;3298;42.688;23.366;2022-07-12T06:37:12;59097.34;;;-145.06;44.79
6530;BME280;3298;42.688;23.366;2022-07-12T06:39:40;58937.34;;;-145.06;47.67
6530;BME280;3298;42.688;23.366;2022-07-12T06:42:07;58836.84;;;-145.06;49.19
6530;BME280;3298;42.688;23.366;2022-07-12T06:44:34;58820.44;;;-145.06;50.25
6530;BME280;3298;42.688;23.366;2022-07-12T06:47:01;58646.09;;;-145.06;51.30
6530;BME280;3298;42.688;23.366;2022-07-12T06:49:29;58806.09;;;-145.06;50.39
6530;BME280;3298;42.688;23.366;2022-07-12T06:51:56;58750.69;;;-145.06;51.28
6530;BME280;3298;42.688;23.366;2022-07-12T06:54:23;58760.97;;;-145.06;50.94
6530;BME280;3298;42.688;23.366;2022-07-12T06:56:50;58756.84;;;-145.06;51.93
6530;BME280;3298;42.688;23.366;2022-07-12T06:59:17;58779.41;;;-145.06;51.23
6530;BME280;3298;42.688;23.366;2022-07-12T07:01:45;58707.63;;;-145.06;51.55
6530;BME280;3298;42.688;23.366;2022-07-12T07:04:12;58707.63;;;-145.06;51.80
6530;BME280;3298;42.688;23.366;2022-07-12T07:06:40;58834.78;;;-145.06;49.96
6530;BME280;3298;42.688;23.366;2022-07-12T07:09:07;58738.41;;;-145.06;49.34
6530;BME280;3298;42.688;23.366;2022-07-12T07:11:34;58765.06;;;-145.06;49.66
6530;BME280;3298;42.688;23.366;2022-07-12T07:14:02;58775.31;;;-145.06;49.06
6530;BME280;3298;42.688;23.366;2022-07-12T07:16:29;58785.56;;;-145.06;48.41
6530;BME280;3298;42.688;23.366;2022-07-12T07:18:56;58787.63;;;-145.06;47.78
6530;BME280;3298;42.688;23.366;2022-07-12T07:21:22;58748.66;;;-145.06;46.00
6530;BME280;3298;42.688;23.366;2022-07-12T07:23:51;58728.16;;;-145.06;46.62
6530;BME280;3298;42.688;23.366;2022-07-12T07:26:18;58760.97;;;-145.06;45.92
6530;BME280;3298;42.688;23.366;2022-07-12T07:28:45;58797.88;;;-145.06;46.35
6530;BME280;3298;42.688;23.366;2022-07-12T07:31:29;58621.50;;;-145.06;44.87
6530;BME280;3298;42.688;23.366;2022-07-12T07:33:56;58826.59;;;-145.06;44.75
6530;BME280;3298;42.688;23.366;2022-07-12T07:36:23;58857.34;;;-145.06;43.30
6530;BME280;3298;42.688;23.366;2022-07-12T07:38:51;58789.66;;;-145.06;42.58
6530;BME280;3298;42.688;23.366;2022-07-12T07:41:18;58822.50;;;-145.06;43.89
6530;BME280;3298;42.688;23.366;2022-07-12T07:43:45;58691.22;;;-145.06;44.28
6530;BME280;3298;42.688;23.366;2022-07-12T07:46:12;58693.28;;;-145.06;44.82
6530;BME280;3298;42.688;23.366;2022-07-12T07:48:39;58801.97;;;-145.06;42.68
6530;BME280;3298;42.688;23.366;2022-07-12T07:51:06;58738.41;;;-145.06;43.15
6530;BME280;3298;42.688;23.366;2022-07-12T07:53:32;58806.09;;;-145.06;43.01
6530;BME280;3298;42.688;23.366;2022-07-12T07:56:01;58851.19;;;-145.06;42.42
6530;BME280;3298;42.688;23.366;2022-07-12T07:58:27;58890.16;;;-145.06;41.25
6530;BME280;3298;42.688;23.366;2022-07-12T08:00:54;58966.06;;;-145.06;40.77
6530;BME280;3298;42.688;23.366;2022-07-12T08:03:22;58859.41;;;-145.06;40.20
6530;BME280;3298;42.688;23.366;2022-07-12T08:05:49;58894.28;;;-145.06;40.36
6530;BME280;3298;42.688;23.366;2022-07-12T08:08:17;58966.06;;;-145.06;40.04
6530;BME280;3298;42.688;23.366;2022-07-12T08:10:44;58959.91;;;-145.06;39.25
6530;BME280;3298;42.688;23.366;2022-07-12T08:13:12;58670.72;;;-145.06;38.10
6530;BME280;3298;42.688;23.366;2022-07-12T08:15:39;58920.94;;;-145.06;38.22
6530;BME280;3298;42.688;23.366;2022-07-12T08:18:06;58859.41;;;-145.06;38.94
6530;BME280;3298;42.688;23.366;2022-07-12T08:20:33;58920.94;;;-145.06;38.79
6530;BME280;3298;42.688;23.366;2022-07-12T08:22:59;59872.75;;;-145.06;38.50
6530;BME280;3298;42.688;23.366;2022-07-12T08:25:26;58929.13;;;-145.06;39.08
6530;BME280;3298;42.688;23.366;2022-07-12T08:27:53;58935.28;;;-145.06;39.10
6530;BME280;3298;42.688;23.366;2022-07-12T08:30:22;58914.78;;;-145.06;38.74
6530;BME280;3298;42.688;23.366;2022-07-12T08:32:49;58920.94;;;-145.06;38.28
6530;BME280;3298;42.688;23.366;2022-07-12T08:35:15;58920.94;;;-145.06;37.70
6530;BME280;3298;42.688;23.366;2022-07-12T08:37:43;58902.47;;;-145.06;37.30
6530;BME280;3298;42.688;23.366;2022-07-12T08:40:11;58937.34;;;-145.06;37.25
6530;BME280;3298;42.688;23.366;2022-07-12T08:42:40;58939.41;;;-145.06;36.67
6530;BME280;3298;42.688;23.366;2022-07-12T08:45:09;59017.34;;;-145.06;37.25
6530;BME280;3298;42.688;23.366;2022-07-12T08:47:37;58912.72;;;-145.06;37.79
6530;BME280;3298;42.688;23.366;2022-07-12T08:50:12;59085.03;;;-145.06;36.93
6530;BME280;3298;42.688;23.366;2022-07-12T08:52:40;58927.09;;;-145.06;35.77
6530;BME280;3298;42.688;23.366;2022-07-12T08:55:18;58939.41;;;-145.06;34.82
6530;BME280;3298;42.688;23.366;2022-07-12T08:57:46;58986.56;;;-145.06;35.89
6530;BME280;3298;42.688;23.366;2022-07-12T09:00:14;59031.69;;;-145.06;35.48
6530;BME280;3298;42.688;23.366;2022-07-12T09:02:47;59048.09;;;-145.06;35.55
6530;BME280;3298;42.688;23.366;2022-07-12T09:05:14;59158.88;;;-145.06;35.99
6530;BME280;3298;42.688;23.366;2022-07-12T09:07:42;59193.75;;;-145.06;36.64
6530;BME280;3298;42.688;23.366;2022-07-12T09:10:10;59154.75;;;-145.06;38.06
6530;BME280;3298;42.688;23.366;2022-07-12T09:12:37;59136.31;;;-145.06;38.79
6530;BME280;3298;42.688;23.366;2022-07-12T09:15:13;58929.13;;;-145.06;38.88
6530;BME280;3298;42.688;23.366;2022-07-12T09:17:53;59187.59;;;-145.06;37.22
6530;BME280;3298;42.688;23.366;2022-07-12T09:20:22;58765.06;;;-145.06;35.29
6530;BME280;3298;42.688;23.366;2022-07-12T09:22:54;59144.50;;;-145.06;35.62
6530;BME280;3298;42.688;23.366;2022-07-12T09:25:21;58865.56;;;-145.06;36.23
6530;BME280;3298;42.688;23.366;2022-07-12T09:27:51;59158.88;;;-145.06;35.99
6530;BME280;3298;42.688;23.366;2022-07-12T09:30:19;59835.81;;;-145.06;35.62
6530;BME280;3298;42.688;23.366;2022-07-12T09:32:51;58939.41;;;-145.06;35.42
6530;BME280;3298;42.688;23.366;2022-07-12T09:35:35;59068.63;;;-145.06;34.40
6530;BME280;3298;42.688;23.366;2022-07-12T09:38:20;59146.56;;;-145.06;33.48
6530;BME280;3298;42.688;23.366;2022-07-12T09:40:48;59160.91;;;-145.06;33.50
6530;BME280;3298;42.688;23.366;2022-07-12T09:43:16;59111.69;;;-145.06;31.84
6530;BME280;3298;42.688;23.366;2022-07-12T09:45:44;59019.38;;;-145.06;31.76
6530;BME280;3298;42.688;23.366;2022-07-12T09:48:14;59478.88;;;-145.06;32.31
6530;BME280;3298;42.688;23.366;2022-07-12T09:50:44;59286.03;;;-145.06;33.07
6530;BME280;3298;42.688;23.366;2022-07-12T09:53:17;59423.47;;;-145.06;33.35
6530;BME280;3298;42.688;23.366;2022-07-12T09:55:49;59035.78;;;-145.06;34.21
6530;BME280;3298;42.688;23.366;2022-07-12T09:58:22;58994.78;;;-145.06;34.09
6530;BME280;3298;42.688;23.366;2022-07-12T10:00:50;59296.31;;;-145.06;33.64
6530;BME280;3298;42.688;23.366;2022-07-12T10:03:21;58933.25;;;-145.06;32.45
6530;BME280;3298;42.688;23.366;2022-07-12T10:05:50;58929.13;;;-145.06;32.23
6530;BME280;3298;42.688;23.366;2022-07-12T10:08:19;59478.88;;;-145.06;32.88
6530;BME280;3298;42.688;23.366;2022-07-12T10:10:47;59562.97;;;-145.06;32.30
6530;BME280;3298;42.688;23.366;2022-07-12T10:13:14;59357.84;;;-145.06;31.88
6530;BME280;3298;42.688;23.366;2022-07-12T10:15:42;59109.63;;;-145.06;33.25
6530;BME280;3298;42.688;23.366;2022-07-12T10:18:15;59144.50;;;-145.06;31.46
6530;BME280;3298;42.688;23.366;2022-07-12T10:20:44;59236.81;;;-145.06;31.17
6530;BME280;3298;42.688;23.366;2022-07-12T10:23:33;59589.66;;;-145.06;30.69
6530;BME280;3298;42.688;23.366;2022-07-12T10:26:23;59528.09;;;-145.06;31.10
6530;BME280;3298;42.688;23.366;2022-07-12T10:28:59;59376.31;;;-145.06;31.73
6530;BME280;3298;42.688;23.366;2022-07-12T10:31:29;59273.72;;;-145.06;31.28
6530;BME280;3298;42.688;23.366;2022-07-12T10:34:14;59565.03;;;-145.06;29.92
6530;BME280;3298;42.688;23.366;2022-07-12T10:40:13;59792.75;;;-145.06;28.51
6530;BME280;3298;42.688;23.366;2022-07-12T10:42:41;59770.19;;;-145.06;28.54
6530;BME280;3298;42.688;23.366;2022-07-12T10:45:30;59942.50;;;-145.06;28.93
6530;BME280;3298;42.688;23.366;2022-07-12T10:47:59;59811.22;;;-145.06;30.07
6530;BME280;3298;42.688;23.366;2022-07-12T10:53:33;59388.59;;;-145.06;30.78
6530;BME280;3298;42.688;23.366;2022-07-12T10:56:18;59630.69;;;-145.06;30.15
6530;BME280;3298;42.688;23.366;2022-07-12T10:58:47;60767.38;;;-145.06;28.64
6530;BME280;3298;42.688;23.366;2022-07-12T11:01:19;59764.03;;;-145.06;28.56
6530;BME280;3298;42.688;23.366;2022-07-12T11:03:47;59460.41;;;-145.06;28.94
6530;BME280;3298;42.688;23.366;2022-07-12T11:06:16;59870.72;;;-145.06;28.60
6530;BME280;3298;42.688;23.366;2022-07-12T11:08:55;60041.00;;;-145.06;27.81
6530;BME280;3298;42.688;23.366;2022-07-12T11:11:25;60178.47;;;-145.06;27.02
6530;BME280;3298;42.688;23.366;2022-07-12T11:13:52;60127.16;;;-145.06;27.40
6530;BME280;3298;42.688;23.366;2022-07-12T11:16:20;60260.53;;;-145.06;28.36
6530;BME280;3298;42.688;23.366;2022-07-12T11:18:47;59796.84;;;-145.06;29.49
6530;BME280;3298;42.688;23.366;2022-07-12T11:21:14;59532.22;;;-145.06;29.70
6530;BME280;3298;42.688;23.366;2022-07-12T11:23:42;59622.47;;;-145.06;29.54
6530;BME280;3298;42.688;23.366;2022-07-12T11:26:11;59991.75;;;-145.06;29.09
6530;BME280;3298;42.688;23.366;2022-07-12T11:28:40;59441.94;;;-145.06;29.92
6530;BME280;3298;42.688;23.366;2022-07-12T11:31:09;59651.19;;;-145.06;29.71
6530;BME280;3298;42.688;23.366;2022-07-12T11:33:38;59755.81;;;-145.06;29.39
6530;BME280;3298;42.688;23.366;2022-07-12T11:36:07;60069.72;;;-145.06;28.76
6530;BME280;3298;42.688;23.366;2022-07-12T11:38:35;59899.44;;;-145.06;28.57
6530;BME280;3298;42.688;23.366;2022-07-12T11:41:07;60100.50;;;-145.06;28.40
6530;BME280;3298;42.688;23.366;2022-07-12T11:43:36;60578.59;;;-145.06;28.76
6530;BME280;3298;42.688;23.366;2022-07-12T11:46:05;59880.97;;;-145.06;28.69
6530;BME280;3298;42.688;23.366;2022-07-12T11:48:35;59885.06;;;-145.06;28.56
6530;BME280;3298;42.688;23.366;2022-07-12T11:51:03;59981.50;;;-145.06;28.04
6530;BME280;3298;42.688;23.366;2022-07-12T11:53:31;60172.31;;;-145.06;27.45
6530;BME280;3298;42.688;23.366;2022-07-12T11:56:00;59975.34;;;-145.06;27.65
6530;BME280;3298;42.688;23.366;2022-07-12T11:58:28;59993.81;;;-145.06;27.89
6530;BME280;3298;42.688;23.366;2022-07-12T12:00:55;60030.75;;;-145.06;28.27
6530;BME280;3298;42.688;23.366;2022-07-12T12:03:24;60295.41;;;-145.06;28.28
6530;BME280;3298;42.688;23.366;2022-07-12T12:05:53;60151.78;;;-145.06;28.59
6530;BME280;3298;42.688;23.366;2022-07-12T12:08:20;59487.06;;;-145.06;28.69
6530;BME280;3298;42.688;23.366;2022-07-12T12:10:54;59725.03;;;-145.06;28.02
6530;BME280;3298;42.688;23.366;2022-07-12T12:13:24;59837.88;;;-145.06;27.61
6530;BME280;3298;42.688;23.366;2022-07-12T12:15:52;59958.94;;;-145.06;27.37
6530;BME280;3298;42.688;23.366;2022-07-12T12:18:31;59794.78;;;-145.06;27.05
6530;BME280;3298;42.688;23.366;2022-07-12T12:21:01;59942.50;;;-145.06;27.70
6530;BME280;3298;42.688;23.366;2022-07-12T12:23:29;59928.16;;;-145.06;28.39
6530;BME280;3298;42.688;23.366;2022-07-12T12:26:12;59556.81;;;-145.06;28.95
6530;BME280;3298;42.688;23.366;2022-07-12T12:28:46;59614.25;;;-145.06;28.80
6530;BME280;3298;42.688;23.366;2022-07-12T12:31:15;60254.38;;;-145.06;28.53
6530;BME280;3298;42.688;23.366;2022-07-12T12:33:45;60082.03;;;-145.06;28.91
6530;BME280;3298;42.688;23.366;2022-07-12T12:36:13;59511.69;;;-145.06;29.74
6530;BME280;3298;42.688;23.366;2022-07-12T12:38:40;59505.53;;;-145.06;29.75
6530;BME280;3298;42.688;23.366;2022-07-12T12:41:08;59405.03;;;-145.06;30.10
6530;BME280;3298;42.688;23.366;2022-07-12T12:43:35;59402.97;;;-145.06;29.90
6530;BME280;3298;42.688;23.366;2022-07-12T12:46:02;59462.47;;;-145.06;28.64
6530;BME280;3298;42.688;23.366;2022-07-12T12:48:30;59573.22;;;-145.06;29.00
6530;BME280;3298;42.688;23.366;2022-07-12T12:51:05;59398.88;;;-145.06;29.06
6530;BME280;3298;42.688;23.366;2022-07-12T12:53:33;59521.94;;;-145.06;29.44
6530;BME280;3298;42.688;23.366;2022-07-12T12:56:00;59880.97;;;-145.06;29.80
6530;BME280;3298;42.688;23.366;2022-07-12T12:58:27;59499.38;;;-145.06;30.28
6530;BME280;3298;42.688;23.366;2022-07-12T13:00:54;59121.94;;;-145.06;30.69
6530;BME280;3298;42.688;23.366;2022-07-12T13:03:22;59597.84;;;-145.06;30.43